Time;durP1;ratioP1;P1;durP2;ratioP2;P2;SDS_P1;SDS_P2;PMS_P1;PMS_P2;Temp;Humidity;BMP_temperature;BMP_pressure;BME280_temperature;BME280_humidity;BME280_pressure;Samples;Min_cycle;Max_cycle;Signal;HPM_P1;HPM_P2
2022/09/17 00:11:56;;;;;;;3.53;1.70;;;;;;;8.91;72.76;99020.78;30740125;28;111617;-65
2022/09/17 00:26:57;;;;;;;3.78;2.45;;;;;;;9.22;71.22;99025.81;30738392;28;111089;-66
2022/09/17 00:41:57;;;;;;;9.37;5.20;;;;;;;9.15;70.87;99009.78;30737110;28;96768;-65
2022/09/17 00:56:58;;;;;;;4.28;1.90;;;;;;;9.06;70.84;99020.72;30735021;28;118387;-65
2022/09/17 01:12:13;;;;;;;1.98;1.15;;;;;;;8.84;71.12;99022.56;30734546;28;96689;-66
2022/09/17 01:27:19;;;;;;;7.13;1.47;;;;;;;8.54;71.21;99012.81;30733960;28;96541;-66
2022/09/17 01:42:30;;;;;;;8.40;1.60;;;;;;;8.18;72.30;99012.75;30747662;28;96828;-65
2022/09/17 01:57:55;;;;;;;4.17;1.53;;;;;;;7.87;73.22;99013.75;30731069;28;96837;-64
2022/09/17 02:13:02;;;;;;;3.13;1.73;;;;;;;7.72;73.51;99005.75;30730116;28;97460;-65
2022/09/17 02:28:12;;;;;;;2.83;1.60;;;;;;;7.57;74.93;99003.09;30742967;28;96607;-65
2022/09/17 02:43:22;;;;;;;2.97;1.80;;;;;;;7.58;75.70;99012.69;30748229;28;96659;-65
2022/09/17 02:58:30;;;;;;;5.13;1.97;;;;;;;8.00;75.57;98987.41;30747658;28;97253;-65
2022/09/17 03:13:31;;;;;;;4.30;2.00;;;;;;;8.27;75.53;98985.94;30744549;28;97328;-64
2022/09/17 03:28:32;;;;;;;3.20;1.70;;;;;;;8.57;75.90;98985.06;30743539;28;97334;-65
2022/09/17 03:43:33;;;;;;;4.80;2.17;;;;;;;9.00;76.51;99000.25;30739825;28;96648;-64
2022/09/17 03:58:34;;;;;;;4.03;1.80;;;;;;;9.47;75.45;98980.22;30739157;28;106811;-65
2022/09/17 04:13:34;;;;;;;4.22;1.88;;;;;;;9.61;74.98;98981.16;30737929;28;96495;-65
2022/09/17 04:28:35;;;;;;;3.47;2.17;;;;;;;9.76;74.30;98978.38;30737208;28;97472;-66
2022/09/17 04:43:35;;;;;;;4.05;2.30;;;;;;;9.95;74.17;98984.84;30735947;28;96854;-65
2022/09/17 04:58:36;;;;;;;4.47;1.80;;;;;;;10.05;73.52;98993.28;30734273;28;96624;-65
2022/09/17 05:13:36;;;;;;;3.42;1.83;;;;;;;10.15;73.60;98990.28;30732360;28;111506;-63
2022/09/17 05:28:36;;;;;;;5.65;2.03;;;;;;;10.36;72.99;98980.56;30730273;28;97118;-64
2022/09/17 05:43:37;;;;;;;2.47;1.60;;;;;;;10.65;73.09;98984.78;30731505;28;96852;-64
2022/09/17 05:58:37;;;;;;;6.03;2.20;;;;;;;11.10;72.26;98984.25;30737455;28;98895;-63
2022/09/17 06:13:37;;;;;;;3.35;1.67;;;;;;;11.57;72.16;98994.94;30748772;28;97078;-64
2022/09/17 06:28:38;;;;;;;4.93;2.28;;;;;;;11.93;70.84;99009.66;30747011;28;96744;-64
2022/09/17 06:43:38;;;;;;;3.72;1.90;;;;;;;11.89;70.02;99029.78;30745095;28;96574;-64
2022/09/17 06:58:42;;;;;;;7.65;2.65;;;;;;;12.16;69.68;99042.09;30741975;28;119291;-63
2022/09/17 07:13:42;;;;;;;4.17;2.10;;;;;;;12.35;69.01;99050.28;30742312;28;96643;-63
2022/09/17 07:28:44;;;;;;;3.92;2.00;;;;;;;12.45;68.36;99039.16;30742124;28;96695;-64
2022/09/17 07:43:44;;;;;;;6.93;2.47;;;;;;;12.61;68.54;99072.59;30739306;28;97371;-64
2022/09/17 07:58:44;;;;;;;7.05;2.20;;;;;;;12.75;68.07;99071.50;30738259;28;106272;-64
2022/09/17 08:13:50;;;;;;;4.18;1.95;;;;;;;12.84;67.28;99094.28;30694201;28;97476;-64
2022/09/17 08:28:54;;;;;;;3.57;2.00;;;;;;;12.94;67.00;99082.31;30605240;28;96753;-65
2022/09/17 08:44:14;;;;;;;5.63;2.20;;;;;;;13.37;67.28;99074.50;30604475;28;97047;-68
2022/09/17 08:59:27;;;;;;;5.30;2.37;;;;;;;13.86;65.02;99061.38;30604028;28;97250;-68
2022/09/17 09:14:34;;;;;;;5.27;2.10;;;;;;;14.18;64.92;99069.31;30651287;28;97980;-64
2022/09/17 09:29:42;;;;;;;5.23;2.77;;;;;;;14.02;64.94;99112.72;30731914;28;96755;-67
2022/09/17 09:44:42;;;;;;;4.50;2.73;;;;;;;13.65;65.27;99134.00;30750029;28;96674;-65
2022/09/17 09:59:42;;;;;;;4.07;2.53;;;;;;;13.49;64.55;99130.81;30749476;28;97635;-65
2022/09/17 10:14:45;;;;;;;7.35;2.83;;;;;;;13.57;65.16;99147.66;30744314;28;97105;-65
2022/09/17 10:29:54;;;;;;;5.43;3.13;;;;;;;14.35;64.45;99138.38;30731588;28;96735;-63
2022/09/17 10:44:57;;;;;;;2.73;2.07;;;;;;;13.65;64.08;99144.72;30614762;28;97627;-63
2022/09/17 11:00:09;;;;;;;3.53;2.00;;;;;;;13.70;65.26;99140.34;30611493;28;97688;-69
2022/09/17 11:15:24;;;;;;;3.87;1.47;;;;;;;18.68;54.48;99115.69;30611659;28;96698;-71
2022/09/17 11:30:31;;;;;;;3.87;1.80;;;;;;;17.03;55.93;99105.75;30690379;28;97122;-67
2022/09/17 11:45:38;;;;;;;1.97;0.90;;;;;;;23.70;50.69;99087.88;30734588;28;96904;-75
2022/09/17 12:01:00;;;;;;;3.47;1.30;;;;;;;22.58;44.62;99089.03;30731381;28;96812;-66
2022/09/17 12:16:14;;;;;;;3.43;1.33;;;;;;;21.77;43.55;99060.94;30725340;28;97081;-74
2022/09/17 12:31:25;;;;;;;3.57;1.00;;;;;;;22.00;43.45;99061.47;30734270;28;96827;-74
2022/09/17 12:46:54;;;;;;;2.13;1.17;;;;;;;19.16;46.27;99048.53;30733286;28;96689;-71
2022/09/17 13:02:02;;;;;;;0.70;0.50;;;;;;;22.71;42.67;99019.75;30733821;28;96778;-64
2022/09/17 13:17:28;;;;;;;2.17;0.63;;;;;;;22.82;39.33;99002.31;30731379;28;96781;-72
2022/09/17 13:32:31;;;;;;;2.47;0.70;;;;;;;19.97;43.84;99020.59;30737594;28;97496;-64
2022/09/17 13:47:51;;;;;;;5.23;1.63;;;;;;;19.97;42.97;99011.66;30729079;28;98424;-65
2022/09/17 14:02:51;;;;;;;2.57;0.83;;;;;;;18.64;46.53;99017.44;30728838;28;96747;-69
2022/09/17 14:17:52;;;;;;;3.70;1.02;;;;;;;17.56;49.48;99004.13;30731321;28;120215;-66
2022/09/17 14:33:18;;;;;;;2.22;1.00;;;;;;;17.13;52.42;98986.72;30742389;28;96777;-66
2022/09/17 14:48:28;;;;;;;3.60;1.23;;;;;;;16.74;53.27;98992.72;30626035;28;96726;-67
2022/09/17 15:03:29;;;;;;;2.33;0.90;;;;;;;16.61;52.92;99000.22;30622587;28;96783;-71
2022/09/17 15:18:47;;;;;;;1.70;0.70;;;;;;;16.82;52.05;99015.72;30621624;28;97498;-64
2022/09/17 15:33:47;;;;;;;3.83;1.03;;;;;;;16.14;52.36;99009.22;30620286;28;96707;-67
2022/09/17 15:48:47;;;;;;;3.33;1.05;;;;;;;15.34;54.65;99032.88;30618742;28;96835;-69
2022/09/17 16:03:56;;;;;;;2.35;0.60;;;;;;;14.76;54.70;99051.16;30618405;28;96574;-65
2022/09/17 16:18:57;;;;;;;3.73;0.90;;;;;;;14.08;56.19;99068.19;30617513;28;96579;-65
2022/09/17 16:33:57;;;;;;;2.92;1.08;;;;;;;13.60;57.92;99057.06;30614469;28;118364;-69
2022/09/17 16:48:59;;;;;;;2.13;0.80;;;;;;;13.36;59.28;99077.41;30613597;28;97144;-69
2022/09/17 17:03:59;;;;;;;9.53;2.03;;;;;;;12.88;60.95;99093.88;30612662;28;96600;-69
2022/09/17 17:19:00;;;;;;;3.67;0.95;;;;;;;12.22;63.47;99099.19;30611115;28;96933;-68
2022/09/17 17:34:00;;;;;;;5.43;1.00;;;;;;;11.79;64.77;99111.06;30610244;28;97499;-64
2022/09/17 17:49:01;;;;;;;5.05;1.15;;;;;;;11.40;66.40;99112.69;30610104;28;97253;-66
2022/09/17 18:04:04;;;;;;;2.83;0.90;;;;;;;11.18;67.46;99106.66;30630038;28;96723;-69
2022/09/17 18:19:04;;;;;;;6.07;1.57;;;;;;;11.14;68.84;99108.94;30628016;28;96768;-64
2022/09/17 18:34:09;;;;;;;4.97;1.52;;;;;;;11.14;69.06;99121.41;30625885;28;96772;-64
2022/09/17 18:49:09;;;;;;;5.87;2.13;;;;;;;11.02;69.62;99110.53;30623704;28;97314;-68
2022/09/17 19:04:10;;;;;;;3.78;1.20;;;;;;;10.90;70.26;99133.44;30623916;28;101109;-65
2022/09/17 19:19:10;;;;;;;5.13;1.65;;;;;;;10.79;70.78;99130.31;30622128;28;97512;-71
2022/09/17 19:34:10;;;;;;;5.60;1.95;;;;;;;10.47;71.06;99140.59;30620091;28;114722;-66
2022/09/17 19:49:12;;;;;;;9.93;1.80;;;;;;;10.06;71.76;99128.00;30617938;28;107591;-69
2022/09/17 20:04:12;;;;;;;8.80;3.47;;;;;;;9.66;72.26;99132.94;30617147;28;97502;-71
2022/09/17 20:19:14;;;;;;;7.90;3.85;;;;;;;9.24;72.64;99123.94;30615304;28;118000;-70
2022/09/17 20:34:15;;;;;;;9.77;3.23;;;;;;;8.93;73.71;99135.66;30614280;28;97537;-64
2022/09/17 20:49:15;;;;;;;5.68;2.22;;;;;;;8.78;74.29;99131.16;30613705;28;97314;-64
2022/09/17 21:04:19;;;;;;;3.60;2.13;;;;;;;8.62;74.59;99141.97;30612230;28;97453;-64
2022/09/17 21:19:23;;;;;;;9.40;2.87;;;;;;;8.63;74.97;99138.31;30612236;28;96540;-66
2022/09/17 21:34:23;;;;;;;4.90;1.43;;;;;;;8.73;74.86;99132.72;30611676;28;97578;-65
2022/09/17 21:49:23;;;;;;;7.15;1.70;;;;;;;8.69;74.78;99137.56;30611211;28;96704;-66
2022/09/17 22:04:25;;;;;;;6.00;1.80;;;;;;;8.61;74.39;99138.50;30610330;28;96671;-64
2022/09/17 22:19:26;;;;;;;4.33;1.70;;;;;;;8.43;74.63;99127.38;30609138;28;96630;-64
2022/09/17 22:34:26;;;;;;;6.75;2.03;;;;;;;8.28;74.67;99135.31;30607887;28;97085;-64
2022/09/17 22:49:26;;;;;;;7.45;1.67;;;;;;;8.06;74.11;99129.09;30626299;28;97158;-65
2022/09/17 23:04:27;;;;;;;7.18;2.03;;;;;;;7.94;74.53;99118.06;30625934;28;113718;-64
2022/09/17 23:19:27;;;;;;;3.67;1.73;;;;;;;7.90;74.92;99116.78;30624499;28;109398;-64
2022/09/17 23:34:28;;;;;;;4.37;1.40;;;;;;;7.92;74.87;99120.09;30621770;28;100022;-64
2022/09/17 23:49:28;;;;;;;5.03;1.52;;;;;;;8.00;74.90;99105.94;30620648;28;96668;-63
